createdAt,value
2017-10-07T08:13:41.067Z,10.67
2017-10-07T08:18:41.836Z,12.20
2017-10-07T08:23:42.580Z,11.57
2017-10-07T08:28:43.387Z,8.43
2017-10-07T08:33:44.155Z,13.77
2017-10-07T08:38:44.920Z,12.70
2017-10-07T08:43:45.675Z,14.27
2017-10-07T08:48:46.885Z,9.30
2017-10-07T08:53:47.624Z,10.73
2017-10-07T08:58:48.384Z,6.90
2017-10-07T09:03:49.147Z,9.40
2017-10-07T09:08:49.906Z,5.60
2017-10-07T09:13:50.675Z,8.53
2017-10-07T09:18:51.428Z,6.87
2017-10-07T09:23:52.175Z,6.83
2017-10-07T09:28:52.942Z,8.77
2017-10-07T09:33:54.593Z,8.27
2017-10-07T09:38:55.352Z,6.13
2017-10-07T09:43:56.139Z,6.40
2017-10-07T09:48:56.933Z,7.43
2017-10-07T09:53:57.686Z,5.17
2017-10-07T09:58:58.431Z,8.17
2017-10-07T10:04:00.082Z,5.67
2017-10-07T10:09:00.845Z,8.83
2017-10-07T10:14:01.659Z,10.57
2017-10-07T10:19:02.409Z,6.50
2017-10-07T10:24:03.155Z,6.97
2017-10-07T10:29:03.923Z,7.00
2017-10-07T10:34:04.679Z,5.70
2017-10-07T10:39:05.432Z,6.87
2017-10-07T10:44:06.225Z,4.70
2017-10-07T10:49:06.983Z,3.03
2017-10-07T10:54:07.740Z,4.87
2017-10-07T10:59:08.523Z,3.67
2017-10-07T11:04:09.288Z,12.40
2017-10-07T11:09:10.058Z,10.30
2017-10-07T11:14:10.816Z,8.07
2017-10-07T11:19:11.885Z,12.07
2017-10-07T11:24:12.640Z,7.63
2017-10-07T11:29:13.382Z,13.20
2017-10-07T11:34:14.132Z,9.27
2017-10-07T11:39:15.918Z,11.73
2017-10-07T11:44:16.655Z,16.80
2017-10-07T11:49:17.403Z,15.17
2017-10-07T11:54:19.035Z,72.70
2017-10-07T11:59:19.820Z,95.00
2017-10-07T12:04:20.579Z,77.73
2017-10-07T12:09:21.351Z,59.10
2017-10-07T12:14:22.100Z,54.47
2017-10-07T12:19:22.867Z,53.00
2017-10-07T12:24:23.605Z,42.87
2017-10-07T12:29:24.383Z,39.07
2017-10-07T12:34:25.155Z,37.73
2017-10-07T12:39:25.923Z,35.90
2017-10-07T12:44:26.678Z,30.17
2017-10-07T12:49:27.425Z,30.07
2017-10-07T12:54:28.221Z,23.13
2017-10-07T12:59:28.967Z,26.60
2017-10-07T13:04:29.722Z,21.33
2017-10-07T13:09:30.463Z,25.73
2017-10-07T13:14:31.234Z,19.33
2017-10-07T13:19:31.981Z,17.23
2017-10-07T13:24:32.744Z,16.17
2017-10-07T13:29:33.511Z,16.43
2017-10-07T13:34:34.267Z,16.07
2017-10-07T13:39:35.087Z,14.87
2017-10-07T13:44:35.867Z,16.40
2017-10-07T13:49:36.616Z,14.27
2017-10-07T13:54:37.385Z,11.47
2017-10-07T13:59:38.155Z,14.13
2017-10-07T14:04:38.907Z,9.37
2017-10-07T14:09:39.672Z,9.20
2017-10-07T14:14:40.424Z,7.97
2017-10-07T14:19:41.172Z,9.23
2017-10-07T14:24:41.951Z,9.17
2017-10-07T14:29:42.723Z,9.07
2017-10-07T14:34:43.471Z,8.57
2017-10-07T14:39:44.253Z,6.43
2017-10-07T14:44:45.020Z,8.50
2017-10-07T14:49:45.784Z,5.97
2017-10-07T14:54:46.522Z,7.57
2017-10-07T14:59:47.293Z,4.30
2017-10-07T15:04:48.040Z,7.43
2017-10-07T15:09:48.803Z,6.80
2017-10-07T15:14:49.553Z,5.53
2017-10-07T15:19:50.307Z,6.37
2017-10-07T15:24:51.067Z,6.57
2017-10-07T15:29:51.840Z,6.27
2017-10-07T15:34:52.578Z,5.33
2017-10-07T15:39:53.337Z,4.13
2017-10-07T15:44:54.111Z,4.50
2017-10-07T15:49:54.892Z,4.20
2017-10-07T15:54:55.648Z,3.67
2017-10-07T15:59:56.402Z,4.63
2017-10-07T16:04:57.176Z,4.43
2017-10-07T16:09:57.939Z,3.57
2017-10-07T16:14:58.707Z,3.67
2017-10-07T16:19:59.448Z,3.90
2017-10-07T16:25:00.209Z,5.33
2017-10-07T16:30:00.984Z,3.40
2017-10-07T16:35:01.773Z,2.80
2017-10-07T16:40:02.528Z,3.60
2017-10-07T16:45:03.286Z,3.90
2017-10-07T16:50:04.047Z,3.43
2017-10-07T16:55:04.816Z,3.23
2017-10-07T17:00:05.568Z,3.73
2017-10-07T17:05:06.363Z,2.83
2017-10-07T17:10:07.131Z,2.77
2017-10-07T17:15:07.907Z,3.77
2017-10-07T17:20:08.687Z,3.23
2017-10-07T17:25:09.440Z,3.40
2017-10-07T17:30:10.203Z,4.63
2017-10-07T17:35:10.971Z,2.57
2017-10-07T17:40:11.731Z,3.10
2017-10-07T17:45:12.477Z,3.40
2017-10-07T17:50:13.236Z,2.33
2017-10-07T17:55:13.996Z,2.67
2017-10-07T18:00:14.772Z,3.67
2017-10-07T18:05:15.508Z,2.87
2017-10-07T18:10:16.276Z,2.60
2017-10-07T18:15:17.028Z,2.30
2017-10-07T18:20:17.801Z,3.53
2017-10-07T18:25:18.552Z,2.53
2017-10-07T18:30:19.319Z,2.30
2017-10-07T18:35:20.088Z,2.87
2017-10-07T18:40:20.852Z,2.50
2017-10-07T18:45:21.598Z,3.40
2017-10-07T18:50:22.356Z,2.30
2017-10-07T18:55:23.123Z,2.50
2017-10-07T19:00:23.883Z,2.70
2017-10-07T19:05:24.639Z,3.00
2017-10-07T19:10:25.378Z,2.50
2017-10-07T19:15:26.147Z,2.43
2017-10-07T19:20:26.891Z,2.50
2017-10-07T19:25:27.651Z,3.10
2017-10-07T19:30:28.403Z,2.40
2017-10-07T19:35:29.151Z,3.30
2017-10-07T19:40:29.924Z,2.47
2017-10-07T19:45:30.693Z,2.77
2017-10-07T19:50:31.441Z,3.13
2017-10-07T19:55:32.216Z,2.60
2017-10-07T20:00:32.995Z,2.60
2017-10-07T20:05:33.773Z,2.60
2017-10-07T20:10:34.540Z,2.40
2017-10-07T20:15:35.316Z,2.23
2017-10-07T20:20:36.083Z,2.70
2017-10-07T20:25:36.845Z,2.50
2017-10-07T20:30:37.589Z,2.27
2017-10-07T20:35:38.345Z,2.60
2017-10-07T20:40:39.112Z,2.30
2017-10-07T20:45:39.883Z,2.30
2017-10-07T20:50:40.626Z,2.57
2017-10-07T20:55:41.417Z,2.63
2017-10-07T21:00:42.209Z,2.30
2017-10-07T21:05:42.988Z,2.30
2017-10-07T21:10:43.773Z,2.10
2017-10-07T21:15:44.567Z,2.50
2017-10-07T21:20:45.312Z,2.20
2017-10-07T21:25:46.075Z,2.20
2017-10-07T21:30:46.847Z,2.47
2017-10-07T21:35:47.599Z,2.13
2017-10-07T21:40:48.378Z,2.20
2017-10-07T21:45:49.115Z,1.90
2017-10-07T21:50:49.869Z,2.20
2017-10-07T21:55:50.611Z,2.30
2017-10-07T22:00:51.396Z,3.33
2017-10-07T22:05:52.151Z,2.20
2017-10-07T22:10:52.906Z,2.07
2017-10-07T22:15:53.676Z,1.80
2017-10-07T22:20:54.415Z,1.80
2017-10-07T22:25:55.184Z,2.10
2017-10-07T22:30:55.966Z,2.93
2017-10-07T22:35:56.739Z,2.47
2017-10-07T22:40:57.494Z,2.17
2017-10-07T22:45:58.235Z,2.33
2017-10-07T22:50:58.997Z,2.00
2017-10-07T22:56:00.654Z,1.90
2017-10-07T23:01:01.443Z,1.80
2017-10-07T23:06:02.223Z,1.93
2017-10-07T23:11:02.996Z,2.00
2017-10-07T23:16:03.775Z,2.03
2017-10-07T23:21:04.539Z,2.00
2017-10-07T23:26:06.236Z,1.80
2017-10-07T23:31:07.010Z,2.13
2017-10-07T23:36:07.760Z,2.13
2017-10-07T23:41:08.499Z,1.73
2017-10-07T23:46:09.268Z,1.80
2017-10-07T23:51:10.012Z,2.20
2017-10-07T23:56:10.775Z,1.93
